Portada
METAR-TAF:

METAR-TAF

Aeropuertos :

Aeropuerto Civil de Amán

Amán, Jordania

latitud: 31-59N, longitud: 035-59E, altitud: 767 m

Observación

El informe se hizo hace 15 horas y 15 minutos, a las 05:00 UTC
Viento calma
Temperatura 22°C
Humedad 60%
Presión 1013 hPa
Visibilidad: 5000 m
calima

METAR: OJAM 210500Z 00000KT 5000 HZ NSC 22/14 Q1013 NOSIG

Hora: 23:15 (20:15 UTC)

Pronóstico

El informe se hizo hace 15 horas y 25 minutos, a las 04:50 UTC
Pronóstico válido del 21 a las 06 UTC al 22 a las 12 UTC
Viento 8 kt del oeste
Visibilidad: 5000 m
calima

TAF: OJAM 210450Z 2106/2212 28008KT 5000 HZ

Observaciones y pronósticos meteorológicos de más de 4000 aeropuertos (mensajes METAR y TAF).

Los puntos amarillos y rojos representan las estaciones disponibles.

Ponga el ratón en el punto deseado para ver el nombre de la estación.

Haga clic para ver las observaciones y los pronósticos meteorológicos.

Para cambiar el mapa : haga clic en los botones verdes con una cruz de color negro para hacer un zoom, en el botón verde con un guión para alejar o en las flechas verdes para mapas adyacentes.


METAR-TAF: